Time;durP1;ratioP1;P1;durP2;ratioP2;P2;SDS_P1;SDS_P2;PMS_P1;PMS_P2;Temp;Humidity;BMP_temperature;BMP_pressure;BME280_temperature;BME280_humidity;BME280_pressure;Samples;Min_cycle;Max_cycle;Signal;HPM_P1;HPM_P2
2023/10/09 00:03:01;;;;;;;37.40;20.95;;;;;;;;;;5069619;28;20040;-61
2023/10/09 00:08:10;;;;;;;37.30;20.48;;;;;;;;;;5073722;28;20028;-62
2023/10/09 00:10:45;;;;;;;34.30;21.80;;;;;;;;;;5071706;28;20162;-60
2023/10/09 00:13:10;;;;;;;41.65;23.08;;;;;;;;;;5073652;28;20021;-61
2023/10/09 00:15:36;;;;;;;34.63;21.33;;;;;;;;;;5071880;28;20037;-61
2023/10/09 00:18:04;;;;;;;47.10;23.33;;;;;;;;;;5072850;28;20972;-61
2023/10/09 00:20:38;;;;;;;41.92;23.02;;;;;;;;;;5071942;28;20082;-60
2023/10/09 00:23:12;;;;;;;39.50;24.20;;;;;;;;;;5073035;28;20052;-61
2023/10/09 00:25:44;;;;;;;45.45;22.92;;;;;;;;;;5071484;28;20065;-61
2023/10/09 00:28:10;;;;;;;38.20;22.60;;;;;;;;;;5073234;28;20730;-61
2023/10/09 00:30:40;;;;;;;40.75;25.13;;;;;;;;;;5071849;28;20156;-62
2023/10/09 00:33:08;;;;;;;42.17;23.27;;;;;;;;;;5072539;28;20021;-61
2023/10/09 00:35:37;;;;;;;38.97;24.93;;;;;;;;;;5071388;28;20452;-61
2023/10/09 00:38:08;;;;;;;;;;;;;;;;;;5073635;28;20032;-61
2023/10/09 00:40:35;;;;;;;41.65;24.42;;;;;;;;;;5071436;28;19908;-60
2023/10/09 00:43:06;;;;;;;37.97;24.15;;;;;;;;;;5071213;28;20012;-62
2023/10/09 00:45:32;;;;;;;46.92;23.73;;;;;;;;;;5069788;28;20119;-62
2023/10/09 00:47:59;;;;;;;41.80;23.25;;;;;;;;;;5072315;28;20464;-62
2023/10/09 00:50:25;;;;;;;31.95;19.10;;;;;;;;;;5071307;28;20024;-62
2023/10/09 00:52:54;;;;;;;39.05;22.63;;;;;;;;;;5072676;28;20094;-62
2023/10/09 00:55:44;;;;;;;43.13;24.73;;;;;;;;;;5071286;28;20085;-71
2023/10/09 00:58:14;;;;;;;47.58;24.02;;;;;;;;;;5072891;28;20020;-63
2023/10/09 01:05:57;;;;;;;44.05;23.05;;;;;;;;;;5071086;28;20024;-63
2023/10/09 01:08:30;;;;;;;32.78;21.70;;;;;;;;;;5072774;28;20055;-64
2023/10/09 01:11:08;;;;;;;35.50;23.60;;;;;;;;;;5070543;28;20064;-63
2023/10/09 01:16:15;;;;;;;35.75;21.55;;;;;;;;;;5070432;28;20029;-69
2023/10/09 01:18:44;;;;;;;44.60;22.98;;;;;;;;;;5071993;28;20070;-63
2023/10/09 01:21:13;;;;;;;31.50;22.00;;;;;;;;;;5070622;28;20033;-63
2023/10/09 01:23:58;;;;;;;40.00;23.08;;;;;;;;;;5072455;28;20020;-63
2023/10/09 01:26:24;;;;;;;39.83;24.65;;;;;;;;;;5070577;28;20037;-62
2023/10/09 01:28:49;;;;;;;45.47;24.75;;;;;;;;;;5072097;28;20073;-62
2023/10/09 01:31:14;;;;;;;35.77;23.67;;;;;;;;;;5070591;28;20495;-62
2023/10/09 01:33:39;;;;;;;41.30;23.08;;;;;;;;;;5071525;28;20041;-62
2023/10/09 01:36:06;;;;;;;39.13;24.58;;;;;;;;;;5070384;28;20039;-62
2023/10/09 01:38:40;;;;;;;42.28;24.10;;;;;;;;;;5072249;28;20020;-62
2023/10/09 01:41:08;;;;;;;43.35;26.40;;;;;;;;;;5069697;28;20041;-62
2023/10/09 01:43:34;;;;;;;37.17;25.33;;;;;;;;;;5071536;28;20036;-61
2023/10/09 01:46:01;;;;;;;52.05;24.95;;;;;;;;;;5070006;28;21070;-63
2023/10/09 01:48:26;;;;;;;46.15;23.98;;;;;;;;;;5071244;28;20659;-63
2023/10/09 01:50:51;;;;;;;40.37;24.73;;;;;;;;;;5069677;28;20029;-62
2023/10/09 01:53:21;;;;;;;35.67;22.38;;;;;;;;;;5071771;28;20016;-62
2023/10/09 01:55:47;;;;;;;49.42;24.75;;;;;;;;;;5069493;28;20491;-62
2023/10/09 02:00:49;;;;;;;53.55;27.50;;;;;;;;;;5069634;28;20076;-63
2023/10/09 02:03:15;;;;;;;;;;;;;;;;;;5071759;28;20090;-62
2023/10/09 02:05:41;;;;;;;52.70;29.13;;;;;;;;;;5069775;28;19908;-63
2023/10/09 02:08:10;;;;;;;48.10;27.55;;;;;;;;;;5069891;28;20021;-64
2023/10/09 02:10:37;;;;;;;45.22;26.98;;;;;;;;;;5068673;28;20032;-64
2023/10/09 02:13:07;;;;;;;50.83;29.98;;;;;;;;;;5071227;28;20038;-62
2023/10/09 02:18:19;;;;;;;58.03;29.42;;;;;;;;;;5051534;28;20029;-62
2023/10/09 02:20:45;;;;;;;47.35;27.10;;;;;;;;;;5049501;28;20472;-62
2023/10/09 02:23:13;;;;;;;50.60;30.95;;;;;;;;;;5050802;28;20063;-62
2023/10/09 02:25:43;;;;;;;44.47;28.40;;;;;;;;;;5049770;28;20033;-62
2023/10/09 02:28:17;;;;;;;43.95;27.38;;;;;;;;;;5056548;28;20379;-61
2023/10/09 02:30:42;;;;;;;41.03;26.63;;;;;;;;;;5068748;28;20763;-62
2023/10/09 02:33:09;;;;;;;44.97;28.43;;;;;;;;;;5070950;28;20108;-62
2023/10/09 02:35:42;;;;;;;41.60;26.40;;;;;;;;;;5069054;28;20044;-62
2023/10/09 02:38:10;;;;;;;43.28;27.67;;;;;;;;;;5070848;28;20027;-61
2023/10/09 02:41:00;;;;;;;49.28;29.58;;;;;;;;;;5069504;28;20044;-62
2023/10/09 02:43:26;;;;;;;51.13;26.60;;;;;;;;;;5071080;28;20091;-62
2023/10/09 02:45:51;;;;;;;42.15;28.70;;;;;;;;;;5068847;28;20036;-62
2023/10/09 02:48:19;;;;;;;47.10;27.77;;;;;;;;;;5070702;28;20017;-62
2023/10/09 02:50:45;;;;;;;49.70;31.98;;;;;;;;;;5069004;28;20453;-64
2023/10/09 02:53:18;;;;;;;44.75;30.02;;;;;;;;;;5070634;28;20013;-62
2023/10/09 02:55:53;;;;;;;41.67;27.60;;;;;;;;;;5068987;28;20121;-62
2023/10/09 02:58:21;;;;;;;40.72;27.77;;;;;;;;;;5070588;28;20685;-62
2023/10/09 03:00:48;;;;;;;51.92;30.80;;;;;;;;;;5068646;28;20055;-62
2023/10/09 03:03:18;;;;;;;57.25;32.97;;;;;;;;;;5070867;28;20025;-62
2023/10/09 03:05:44;;;;;;;47.75;28.13;;;;;;;;;;5069017;28;20039;-63
2023/10/09 03:08:12;;;;;;;48.80;32.20;;;;;;;;;;5070464;28;20017;-62
2023/10/09 03:10:38;;;;;;;47.83;30.70;;;;;;;;;;5068963;28;20040;-62
2023/10/09 03:13:05;;;;;;;39.55;27.25;;;;;;;;;;5070485;28;20013;-65
2023/10/09 03:15:35;;;;;;;43.90;30.75;;;;;;;;;;5068748;28;20032;-63
2023/10/09 03:18:00;;;;;;;47.20;29.27;;;;;;;;;;5070494;28;20162;-62
2023/10/09 03:20:26;;;;;;;53.50;31.58;;;;;;;;;;5069214;28;20115;-62
2023/10/09 03:22:54;;;;;;;46.58;28.10;;;;;;;;;;5068348;28;20009;-63
2023/10/09 03:25:19;;;;;;;44.92;29.50;;;;;;;;;;5068711;28;20124;-62
2023/10/09 03:27:47;;;;;;;44.17;27.02;;;;;;;;;;5070012;28;20103;-62
2023/10/09 03:30:16;;;;;;;52.63;30.70;;;;;;;;;;5068848;28;20040;-62
2023/10/09 03:32:42;;;;;;;42.33;29.23;;;;;;;;;;5070060;28;20550;-63
2023/10/09 03:35:09;;;;;;;56.50;32.40;;;;;;;;;;5068774;28;20163;-63
2023/10/09 03:37:35;;;;;;;58.72;33.75;;;;;;;;;;5070053;28;20023;-60
2023/10/09 03:40:00;;;;;;;58.55;30.52;;;;;;;;;;5071724;28;20016;-63
2023/10/09 03:42:26;;;;;;;44.20;28.15;;;;;;;;;;5073867;28;20047;-60
2023/10/09 03:44:57;;;;;;;51.13;32.80;;;;;;;;;;5072255;28;20605;-60
2023/10/09 03:47:22;;;;;;;58.45;30.48;;;;;;;;;;5074235;28;20070;-60
2023/10/09 03:49:51;;;;;;;53.20;29.77;;;;;;;;;;5053694;28;20468;-61
2023/10/09 03:52:17;;;;;;;55.55;32.08;;;;;;;;;;5053679;28;20460;-61
2023/10/09 03:54:46;;;;;;;59.88;37.00;;;;;;;;;;5053884;28;20060;-62
2023/10/09 03:57:11;;;;;;;52.72;31.65;;;;;;;;;;5072338;28;20048;-62
2023/10/09 03:59:37;;;;;;;46.53;29.73;;;;;;;;;;5073438;28;20017;-62
2023/10/09 04:02:04;;;;;;;52.33;33.35;;;;;;;;;;5071769;28;20438;-62
2023/10/09 04:04:32;;;;;;;52.80;32.22;;;;;;;;;;5073915;28;20016;-62
2023/10/09 04:06:57;;;;;;;47.55;26.85;;;;;;;;;;5071409;28;20376;-62
2023/10/09 04:12:04;;;;;;;48.90;33.47;;;;;;;;;;5071760;28;20051;-60
2023/10/09 04:14:34;;;;;;;53.13;30.63;;;;;;;;;;5059159;28;20064;-60
2023/10/09 04:17:08;;;;;;;45.67;30.60;;;;;;;;;;5051731;28;20037;-60
2023/10/09 04:19:47;;;;;;;54.00;32.83;;;;;;;;;;5053397;28;20025;-60
2023/10/09 04:22:25;;;;;;;57.25;31.70;;;;;;;;;;5051097;28;20488;-60
2023/10/09 04:24:51;;;;;;;45.65;31.27;;;;;;;;;;5052733;28;20061;-60
2023/10/09 04:27:17;;;;;;;52.13;31.88;;;;;;;;;;5073472;28;20056;-60
2023/10/09 04:29:46;;;;;;;41.80;29.98;;;;;;;;;;5072988;28;20017;-67
2023/10/09 04:32:16;;;;;;;48.00;30.05;;;;;;;;;;5071795;28;20119;-60
2023/10/09 04:34:48;;;;;;;44.38;32.75;;;;;;;;;;5072276;28;20131;-60
2023/10/09 04:39:46;;;;;;;39.57;29.67;;;;;;;;;;5073326;28;20107;-60
2023/10/09 04:42:57;;;;;;;47.05;30.88;;;;;;;;;;5070845;28;20443;-61
2023/10/09 04:47:38;;;;;;;48.28;33.42;;;;;;;;;;5073080;28;20067;-60
2023/10/09 04:50:08;;;;;;;55.10;31.45;;;;;;;;;;5070667;28;20017;-61
2023/10/09 04:57:38;;;;;;;49.88;34.13;;;;;;;;;;5072949;28;20464;-60
2023/10/09 05:00:22;;;;;;;53.75;38.08;;;;;;;;;;5070501;28;20421;-61
2023/10/09 05:02:54;;;;;;;48.97;35.90;;;;;;;;;;5072666;28;20025;-61
2023/10/09 05:08:22;;;;;;;51.83;30.98;;;;;;;;;;5072233;28;20074;-61
2023/10/09 05:13:42;;;;;;;53.67;34.38;;;;;;;;;;5072498;28;20111;-61
2023/10/09 05:16:15;;;;;;;57.65;35.05;;;;;;;;;;5070985;28;20048;-61
2023/10/09 05:18:41;;;;;;;53.20;34.30;;;;;;;;;;5072468;28;20422;-61
2023/10/09 05:21:52;;;;;;;50.63;33.15;;;;;;;;;;5070568;28;20040;-61
2023/10/09 05:29:34;;;;;;;50.57;36.47;;;;;;;;;;5067296;28;20029;-61
2023/10/09 05:34:33;;;;;;;53.85;32.70;;;;;;;;;;5051862;28;20059;-59
2023/10/09 05:37:17;;;;;;;56.70;33.95;;;;;;;;;;5049731;28;20156;-59
2023/10/09 05:40:08;;;;;;;51.13;34.35;;;;;;;;;;5051899;28;20021;-60
2023/10/09 05:47:57;;;;;;;61.90;35.40;;;;;;;;;;5051780;28;20029;-59
2023/10/09 05:53:04;;;;;;;57.05;36.42;;;;;;;;;;5051583;28;20037;-59
2023/10/09 05:57:09;;;;;;;67.00;36.58;;;;;;;;;;5049922;28;20462;-59
2023/10/09 06:01:11;;;;;;;60.10;37.13;;;;;;;;;;5051107;28;20021;-59
2023/10/09 06:04:18;;;;;;;55.05;34.75;;;;;;;;;;5051695;28;20104;-59
2023/10/09 06:06:55;;;;;;;52.58;34.88;;;;;;;;;;5049541;28;20116;-59
2023/10/09 06:11:49;;;;;;;51.20;33.67;;;;;;;;;;5049652;28;20447;-60
2023/10/09 06:14:25;;;;;;;45.50;33.17;;;;;;;;;;5051314;28;20431;-60
2023/10/09 06:19:27;;;;;;;54.85;36.00;;;;;;;;;;5051240;28;20443;-60
2023/10/09 06:24:54;;;;;;;54.28;36.65;;;;;;;;;;5051525;28;20033;-59
2023/10/09 06:30:14;;;;;;;47.85;35.13;;;;;;;;;;5049703;28;20033;-59
2023/10/09 06:32:50;;;;;;;50.30;32.88;;;;;;;;;;5051306;28;20029;-70
2023/10/09 06:35:21;;;;;;;50.80;32.85;;;;;;;;;;5048743;28;20525;-68
2023/10/09 06:43:17;;;;;;;43.53;30.42;;;;;;;;;;5056105;28;20082;-59
2023/10/09 06:45:45;;;;;;;47.28;33.95;;;;;;;;;;5056670;28;20086;-67
2023/10/09 06:51:15;;;;;;;52.45;34.38;;;;;;;;;;5068575;28;20184;-63
2023/10/09 06:53:58;;;;;;;45.40;29.52;;;;;;;;;;5070621;28;20028;-59
2023/10/09 06:59:13;;;;;;;50.03;33.05;;;;;;;;;;5069803;28;20028;-59
2023/10/09 07:04:18;;;;;;;47.22;29.27;;;;;;;;;;5070456;28;20093;-59
2023/10/09 07:24:49;;;;;;;46.97;29.75;;;;;;;;;;5054466;28;20116;-59
2023/10/09 07:27:16;;;;;;;39.20;28.52;;;;;;;;;;5032831;28;20053;-58
2023/10/09 07:29:47;;;;;;;46.05;28.25;;;;;;;;;;5053186;28;20108;-59
2023/10/09 07:32:22;;;;;;;39.83;29.60;;;;;;;;;;5064974;28;20037;-59
2023/10/09 07:34:53;;;;;;;40.70;30.92;;;;;;;;;;5053220;28;20118;-59
2023/10/09 07:37:22;;;;;;;39.85;28.13;;;;;;;;;;5057950;28;20083;-59
2023/10/09 07:39:56;;;;;;;43.00;30.85;;;;;;;;;;5054100;28;20384;-59
2023/10/09 07:50:37;;;;;;;39.25;27.60;;;;;;;;;;5072587;28;20032;-59
2023/10/09 07:53:17;;;;;;;38.60;26.92;;;;;;;;;;5074010;28;20025;-59
2023/10/09 07:55:53;;;;;;;44.30;28.00;;;;;;;;;;5072509;28;20033;-59
2023/10/09 07:58:24;;;;;;;40.72;29.00;;;;;;;;;;5070507;28;20031;-59
2023/10/09 08:01:08;;;;;;;38.33;29.23;;;;;;;;;;5064076;28;20033;-58
2023/10/09 08:03:36;;;;;;;37.65;27.02;;;;;;;;;;5053400;28;20024;-59
2023/10/09 08:06:37;;;;;;;34.58;24.20;;;;;;;;;;5061866;28;20043;-59
2023/10/09 08:14:20;;;;;;;30.80;22.48;;;;;;;;;;5053766;28;20053;-59
2023/10/09 08:16:46;;;;;;;37.08;26.13;;;;;;;;;;5067840;28;20043;-61
2023/10/09 08:24:41;;;;;;;33.15;24.63;;;;;;;;;;5053064;28;20080;-60
2023/10/09 08:30:12;;;;;;;38.38;25.40;;;;;;;;;;5071069;28;20469;-59
2023/10/09 08:32:42;;;;;;;39.70;25.08;;;;;;;;;;5052338;28;20044;-59
2023/10/09 08:35:29;;;;;;;33.60;22.17;;;;;;;;;;5054229;28;20511;-59
2023/10/09 08:37:52;;;;;;;32.63;22.45;;;;;;;;;;5058292;28;20052;-63
2023/10/09 08:40:20;;;;;;;31.00;22.30;;;;;;;;;;5051308;28;20530;-58
2023/10/09 08:42:52;;;;;;;32.33;23.40;;;;;;;;;;5052226;28;20484;-59
2023/10/09 08:45:25;;;;;;;29.88;21.75;;;;;;;;;;5051434;28;20029;-59
2023/10/09 08:47:53;;;;;;;30.92;22.00;;;;;;;;;;5069184;28;20054;-58
2023/10/09 08:50:19;;;;;;;29.77;20.02;;;;;;;;;;5055029;28;20489;-59
2023/10/09 08:52:44;;;;;;;32.17;23.90;;;;;;;;;;5052698;28;20051;-59
2023/10/09 08:55:10;;;;;;;31.52;23.83;;;;;;;;;;5051414;28;20056;-59
2023/10/09 08:57:39;;;;;;;33.15;21.30;;;;;;;;;;5052431;28;20468;-59
2023/10/09 09:00:09;;;;;;;38.05;22.02;;;;;;;;;;5051502;28;20025;-59
2023/10/09 09:02:36;;;;;;;36.70;22.73;;;;;;;;;;5052769;28;20021;-59
2023/10/09 09:05:15;;;;;;;36.40;22.27;;;;;;;;;;5050819;28;20227;-58
2023/10/09 09:07:42;;;;;;;34.72;22.45;;;;;;;;;;5052663;28;20108;-59
2023/10/09 09:10:24;;;;;;;31.30;22.70;;;;;;;;;;5051322;28;20039;-59
2023/10/09 09:13:00;;;;;;;32.40;22.02;;;;;;;;;;5052278;28;20079;-59
2023/10/09 09:15:27;;;;;;;29.90;21.05;;;;;;;;;;5051115;28;20025;-58
2023/10/09 09:18:02;;;;;;;32.78;23.38;;;;;;;;;;5051596;28;20021;-58
2023/10/09 09:20:33;;;;;;;25.17;19.88;;;;;;;;;;5050954;28;20033;-59
2023/10/09 09:22:58;;;;;;;26.42;20.92;;;;;;;;;;5062634;28;20024;-59
2023/10/09 09:25:24;;;;;;;39.92;21.65;;;;;;;;;;5064243;28;20471;-59
2023/10/09 09:27:55;;;;;;;34.40;22.08;;;;;;;;;;5051854;28;20447;-73
2023/10/09 09:30:24;;;;;;;27.45;20.92;;;;;;;;;;5051604;28;20523;-58
2023/10/09 09:33:15;;;;;;;30.80;20.40;;;;;;;;;;5071469;28;20036;-59
2023/10/09 09:35:35;;;;;;;31.70;19.13;;;;;;;;;;5069946;28;20051;-60
2023/10/09 09:38:04;;;;;;;36.88;22.45;;;;;;;;;;5071148;28;20025;-60
2023/10/09 09:40:30;;;;;;;29.33;21.45;;;;;;;;;;5069868;28;20086;-64
2023/10/09 09:43:09;;;;;;;37.90;21.33;;;;;;;;;;5071564;28;20039;-62
2023/10/09 09:45:35;;;;;;;29.52;22.73;;;;;;;;;;5070246;28;20036;-64
2023/10/09 09:48:06;;;;;;;26.42;19.45;;;;;;;;;;5071238;28;20028;-71
2023/10/09 09:50:38;;;;;;;29.98;19.88;;;;;;;;;;5070179;28;20064;-62
2023/10/09 09:53:07;;;;;;;35.05;21.27;;;;;;;;;;5071460;28;20042;-59
2023/10/09 09:55:33;;;;;;;28.05;20.67;;;;;;;;;;5070028;28;20025;-59
2023/10/09 09:58:00;;;;;;;32.75;18.75;;;;;;;;;;5071202;28;20134;-59
2023/10/09 10:00:30;;;;;;;36.17;20.63;;;;;;;;;;5070158;28;20450;-60
2023/10/09 10:03:05;;;;;;;29.10;20.13;;;;;;;;;;5071015;28;20044;-60
2023/10/09 10:05:31;;;;;;;29.90;18.13;;;;;;;;;;5070071;28;20036;-59
2023/10/09 10:07:58;;;;;;;24.90;18.15;;;;;;;;;;5071045;28;20545;-65
2023/10/09 10:10:53;;;;;;;27.67;18.60;;;;;;;;;;5069838;28;20388;-57
2023/10/09 10:13:38;;;;;;;25.35;18.55;;;;;;;;;;5068104;28;20020;-57
2023/10/09 10:16:19;;;;;;;24.92;17.95;;;;;;;;;;5064976;28;20037;-58
2023/10/09 10:19:06;;;;;;;34.72;18.65;;;;;;;;;;5070449;28;20086;-57
2023/10/09 10:24:05;;;;;;;23.02;17.25;;;;;;;;;;5061715;28;20052;-57
2023/10/09 10:26:33;;;;;;;31.27;16.02;;;;;;;;;;5062045;28;20128;-57
2023/10/09 10:29:26;;;;;;;30.83;16.83;;;;;;;;;;5058948;28;20464;-57
2023/10/09 10:31:55;;;;;;;21.40;18.25;;;;;;;;;;5049044;28;20048;-57
2023/10/09 10:34:23;;;;;;;21.25;15.68;;;;;;;;;;5049908;28;20045;-57
2023/10/09 10:36:52;;;;;;;27.70;16.45;;;;;;;;;;5049313;28;20490;-57
2023/10/09 10:39:21;;;;;;;26.48;18.88;;;;;;;;;;5048942;28;20613;-57
2023/10/09 10:41:57;;;;;;;34.72;18.80;;;;;;;;;;5048426;28;20409;-58
2023/10/09 10:44:38;;;;;;;22.50;16.08;;;;;;;;;;5050963;28;20017;-58
2023/10/09 10:47:21;;;;;;;23.13;16.90;;;;;;;;;;5048784;28;20044;-57
2023/10/09 10:49:49;;;;;;;23.60;17.60;;;;;;;;;;5048804;28;20494;-54
2023/10/09 10:52:21;;;;;;;18.83;14.05;;;;;;;;;;5050874;28;20028;-57
2023/10/09 10:54:46;;;;;;;27.52;15.30;;;;;;;;;;5050326;28;20025;-57
2023/10/09 10:57:30;;;;;;;32.93;16.40;;;;;;;;;;5049155;28;20508;-58
2023/10/09 11:00:05;;;;;;;21.00;14.38;;;;;;;;;;5049267;28;20029;-57
2023/10/09 11:02:31;;;;;;;21.83;16.67;;;;;;;;;;5050446;28;20020;-58
2023/10/09 11:04:56;;;;;;;23.42;15.02;;;;;;;;;;5049053;28;20095;-57
2023/10/09 11:07:24;;;;;;;23.07;15.17;;;;;;;;;;5050751;28;20068;-57
2023/10/09 11:12:42;;;;;;;23.65;16.73;;;;;;;;;;5050804;28;20892;-58
2023/10/09 11:15:29;;;;;;;20.55;14.43;;;;;;;;;;5049052;28;20037;-58
2023/10/09 11:18:07;;;;;;;25.30;13.15;;;;;;;;;;5049886;28;20025;-57
2023/10/09 11:20:33;;;;;;;20.10;13.25;;;;;;;;;;5049226;28;20033;-57
2023/10/09 11:25:37;;;;;;;18.92;12.57;;;;;;;;;;5049033;28;20045;-58
2023/10/09 11:28:27;;;;;;;30.05;12.98;;;;;;;;;;5050389;28;20083;-57
2023/10/09 11:30:55;;;;;;;26.15;12.63;;;;;;;;;;5048426;28;20124;-58
2023/10/09 11:33:21;;;;;;;20.40;11.55;;;;;;;;;;5050411;28;20025;-68
2023/10/09 11:35:56;;;;;;;22.55;13.20;;;;;;;;;;5048887;28;20075;-57
2023/10/09 11:38:23;;;;;;;17.83;12.65;;;;;;;;;;5050275;28;20021;-58
2023/10/09 11:41:06;;;;;;;19.58;10.07;;;;;;;;;;5048699;28;20044;-58
2023/10/09 11:44:05;;;;;;;17.92;11.40;;;;;;;;;;5050367;28;20013;-58
2023/10/09 11:46:48;;;;;;;16.73;9.23;;;;;;;;;;5048319;28;20037;-57
2023/10/09 11:49:44;;;;;;;22.88;9.13;;;;;;;;;;5050299;28;20045;-58
2023/10/09 11:54:35;;;;;;;13.98;8.07;;;;;;;;;;5049390;28;20025;-58
2023/10/09 11:57:01;;;;;;;20.42;10.43;;;;;;;;;;5048195;28;20033;-58
2023/10/09 11:59:38;;;;;;;17.13;8.85;;;;;;;;;;5050076;28;20071;-58
2023/10/09 12:02:12;;;;;;;18.88;10.05;;;;;;;;;;5051635;28;20065;-58
2023/10/09 12:04:41;;;;;;;24.52;10.43;;;;;;;;;;5054008;28;20059;-57
2023/10/09 12:07:07;;;;;;;16.27;9.73;;;;;;;;;;5051998;28;20045;-58
2023/10/09 12:09:34;;;;;;;18.23;9.52;;;;;;;;;;5053670;28;20028;-58
2023/10/09 12:12:00;;;;;;;12.65;8.43;;;;;;;;;;5051760;28;20065;-58
2023/10/09 12:14:26;;;;;;;11.07;6.75;;;;;;;;;;5053548;28;20048;-58
2023/10/09 12:16:52;;;;;;;12.65;8.10;;;;;;;;;;5051499;28;20063;-58
2023/10/09 12:19:18;;;;;;;17.98;9.13;;;;;;;;;;5053668;28;20055;-58
2023/10/09 12:21:43;;;;;;;10.32;7.13;;;;;;;;;;5051480;28;20052;-58
2023/10/09 12:24:11;;;;;;;13.90;7.63;;;;;;;;;;5052877;28;20047;-58
2023/10/09 12:26:39;;;;;;;20.67;8.98;;;;;;;;;;5051524;28;20037;-57
2023/10/09 12:29:10;;;;;;;17.50;9.55;;;;;;;;;;5053144;28;20017;-63
2023/10/09 12:31:35;;;;;;;15.05;8.63;;;;;;;;;;5051592;28;20033;-61
2023/10/09 12:34:01;;;;;;;16.65;7.13;;;;;;;;;;5052688;28;20508;-58
2023/10/09 12:36:26;;;;;;;24.73;9.35;;;;;;;;;;5051798;28;20041;-58
2023/10/09 12:38:54;;;;;;;18.37;8.90;;;;;;;;;;5052890;28;20028;-58
2023/10/09 12:41:26;;;;;;;15.80;8.07;;;;;;;;;;5051727;28;20079;-60
2023/10/09 12:43:52;;;;;;;15.93;7.78;;;;;;;;;;5052795;28;20151;-58
2023/10/09 12:46:17;;;;;;;16.77;8.85;;;;;;;;;;5051475;28;20052;-58
2023/10/09 12:48:46;;;;;;;12.75;6.75;;;;;;;;;;5052960;28;20057;-58
2023/10/09 12:51:16;;;;;;;14.15;9.55;;;;;;;;;;5051465;28;20036;-58
2023/10/09 12:53:41;;;;;;;21.42;9.45;;;;;;;;;;5052671;28;20108;-58
2023/10/09 12:56:07;;;;;;;14.40;8.00;;;;;;;;;;5051114;28;20112;-57
2023/10/09 12:58:37;;;;;;;33.90;9.75;;;;;;;;;;5053025;28;20423;-58
2023/10/09 13:01:09;;;;;;;16.90;8.32;;;;;;;;;;5050402;28;20039;-58
2023/10/09 13:03:38;;;;;;;14.07;8.27;;;;;;;;;;5048484;28;20025;-57
2023/10/09 13:06:07;;;;;;;17.85;9.20;;;;;;;;;;5050626;28;20079;-59
2023/10/09 13:08:35;;;;;;;41.72;10.98;;;;;;;;;;5052250;28;20063;-58
2023/10/09 13:11:10;;;;;;;22.17;10.02;;;;;;;;;;5059952;28;20033;-58
2023/10/09 13:13:46;;;;;;;13.85;7.43;;;;;;;;;;5072722;28;20096;-58
2023/10/09 13:16:25;;;;;;;22.85;9.63;;;;;;;;;;5070111;28;20491;-58
2023/10/09 13:18:50;;;;;;;15.82;7.93;;;;;;;;;;5072413;28;20040;-58
2023/10/09 13:21:16;;;;;;;14.18;7.28;;;;;;;;;;5071137;28;20073;-58
2023/10/09 13:23:46;;;;;;;15.45;7.30;;;;;;;;;;5069479;28;20020;-58
2023/10/09 13:26:34;;;;;;;13.30;6.88;;;;;;;;;;5058571;28;20035;-58
2023/10/09 13:28:57;;;;;;;20.63;8.40;;;;;;;;;;5051717;28;20033;-58
2023/10/09 13:31:27;;;;;;;14.15;6.65;;;;;;;;;;5063310;28;20033;-58
2023/10/09 13:33:54;;;;;;;19.55;6.72;;;;;;;;;;5071466;28;20040;-57
2023/10/09 13:36:26;;;;;;;16.60;8.63;;;;;;;;;;5056711;28;20458;-59
2023/10/09 13:38:53;;;;;;;12.57;6.95;;;;;;;;;;5050109;28;20507;-68
2023/10/09 13:41:18;;;;;;;11.38;7.10;;;;;;;;;;5063008;28;20097;-58
2023/10/09 13:43:43;;;;;;;17.87;7.07;;;;;;;;;;5071661;28;20448;-58
2023/10/09 13:46:11;;;;;;;17.38;6.45;;;;;;;;;;5059024;28;20037;-58
2023/10/09 13:48:41;;;;;;;12.02;5.85;;;;;;;;;;5051685;28;20089;-58
2023/10/09 13:51:08;;;;;;;22.08;7.30;;;;;;;;;;5060332;28;20135;-58
2023/10/09 13:53:35;;;;;;;12.00;6.50;;;;;;;;;;5071525;28;20013;-58
2023/10/09 13:56:01;;;;;;;29.65;6.10;;;;;;;;;;5070066;28;20443;-58
2023/10/09 13:58:27;;;;;;;20.85;8.43;;;;;;;;;;5071796;28;20020;-58
2023/10/09 14:00:53;;;;;;;12.95;5.28;;;;;;;;;;5069532;28;20074;-58
2023/10/09 14:03:23;;;;;;;17.27;6.43;;;;;;;;;;5071629;28;20103;-58
2023/10/09 14:05:54;;;;;;;14.75;5.72;;;;;;;;;;5069966;28;20037;-58
2023/10/09 14:08:23;;;;;;;16.33;6.00;;;;;;;;;;5067968;28;20040;-58
2023/10/09 14:10:51;;;;;;;18.13;5.55;;;;;;;;;;5059917;28;20056;-57
2023/10/09 14:13:16;;;;;;;;;;;;;;;;;;5050238;28;20020;-58
2023/10/09 14:15:43;;;;;;;10.07;6.43;;;;;;;;;;5056457;28;19908;-58
2023/10/09 14:18:11;;;;;;;11.55;5.13;;;;;;;;;;5070491;28;20453;-68
2023/10/09 14:20:37;;;;;;;14.35;6.95;;;;;;;;;;5062956;28;20033;-58
2023/10/09 14:23:06;;;;;;;19.27;8.00;;;;;;;;;;5050751;28;20078;-57
2023/10/09 14:25:31;;;;;;;12.90;6.90;;;;;;;;;;5055953;28;20116;-58
2023/10/09 14:27:57;;;;;;;13.35;6.85;;;;;;;;;;5070747;28;20103;-58
2023/10/09 14:30:30;;;;;;;14.50;7.45;;;;;;;;;;5064375;28;20040;-58
2023/10/09 14:32:56;;;;;;;11.60;6.30;;;;;;;;;;5051040;28;20036;-58
2023/10/09 14:35:26;;;;;;;15.18;7.93;;;;;;;;;;5053949;28;20507;-58
2023/10/09 14:37:51;;;;;;;11.60;6.55;;;;;;;;;;5070591;28;20198;-58
2023/10/09 14:40:20;;;;;;;9.90;6.65;;;;;;;;;;5065609;28;20618;-58
2023/10/09 14:42:46;;;;;;;10.07;7.57;;;;;;;;;;5050746;28;20028;-58
2023/10/09 14:45:15;;;;;;;13.43;6.32;;;;;;;;;;5052531;28;20032;-58
2023/10/09 14:47:41;;;;;;;13.35;5.35;;;;;;;;;;5071113;28;20032;-58
2023/10/09 14:50:08;;;;;;;12.77;5.88;;;;;;;;;;5059817;28;20089;-58
2023/10/09 14:52:33;;;;;;;13.05;5.88;;;;;;;;;;5050372;28;20017;-58
2023/10/09 14:55:00;;;;;;;10.77;5.93;;;;;;;;;;5050468;28;20075;-58
2023/10/09 14:57:26;;;;;;;9.30;5.65;;;;;;;;;;5064234;28;20009;-58
2023/10/09 14:59:52;;;;;;;11.85;6.30;;;;;;;;;;5048856;28;20383;-57
2023/10/09 15:02:17;;;;;;;10.35;6.22;;;;;;;;;;5061091;28;20009;-58
2023/10/09 15:04:43;;;;;;;16.98;6.43;;;;;;;;;;5069556;28;20028;-58
2023/10/09 15:07:08;;;;;;;9.98;5.78;;;;;;;;;;5068653;28;20041;-57
2023/10/09 15:09:36;;;;;;;13.13;7.22;;;;;;;;;;5070394;28;20024;-58
2023/10/09 15:12:01;;;;;;;12.95;6.05;;;;;;;;;;5068179;28;20056;-58
2023/10/09 15:14:26;;;;;;;23.73;7.77;;;;;;;;;;5070571;28;20387;-57
2023/10/09 15:16:51;;;;;;;14.20;7.28;;;;;;;;;;5068894;28;20986;-58
2023/10/09 15:19:16;;;;;;;18.10;7.40;;;;;;;;;;5070090;28;20013;-58
2023/10/09 15:21:44;;;;;;;11.60;6.75;;;;;;;;;;5068415;28;20041;-57
2023/10/09 15:24:10;;;;;;;17.38;6.50;;;;;;;;;;5068201;28;20035;-57
2023/10/09 15:26:35;;;;;;;15.95;8.82;;;;;;;;;;5068397;28;20434;-58
2023/10/09 15:29:03;;;;;;;14.00;8.27;;;;;;;;;;5069939;28;20103;-57
2023/10/09 15:31:30;;;;;;;9.98;6.40;;;;;;;;;;5069054;28;20044;-57
2023/10/09 15:33:57;;;;;;;15.57;6.72;;;;;;;;;;5069909;28;20044;-73
2023/10/09 15:36:25;;;;;;;13.55;9.15;;;;;;;;;;5072478;28;20036;-57
2023/10/09 15:38:50;;;;;;;44.20;35.13;;;;;;;;;;5073954;28;20616;-58
2023/10/09 15:41:16;;;;;;;51.58;40.28;;;;;;;;;;5072676;28;20036;-57
2023/10/09 15:43:41;;;;;;;46.75;37.65;;;;;;;;;;5068652;28;20031;-57
2023/10/09 15:46:10;;;;;;;39.33;29.75;;;;;;;;;;5064381;28;20025;-57
2023/10/09 15:48:37;;;;;;;20.15;11.38;;;;;;;;;;5053693;28;20377;-57
2023/10/09 15:51:02;;;;;;;19.52;10.77;;;;;;;;;;5051292;28;20041;-57
2023/10/09 15:53:28;;;;;;;19.38;7.63;;;;;;;;;;5053427;28;20031;-58
2023/10/09 15:55:57;;;;;;;15.57;7.80;;;;;;;;;;5045484;28;20037;-57
2023/10/09 15:58:22;;;;;;;15.00;9.50;;;;;;;;;;5033754;28;20021;-58
2023/10/09 16:00:47;;;;;;;11.87;7.27;;;;;;;;;;5044631;28;20051;-57
2023/10/09 16:03:13;;;;;;;16.97;10.57;;;;;;;;;;5073596;28;20025;-58
2023/10/09 16:05:40;;;;;;;12.35;6.93;;;;;;;;;;5071999;28;20047;-57
2023/10/09 16:08:06;;;;;;;28.83;8.30;;;;;;;;;;5073130;28;20028;-57
2023/10/09 16:10:31;;;;;;;17.60;7.10;;;;;;;;;;5071890;28;20476;-65
2023/10/09 16:12:57;;;;;;;16.17;5.97;;;;;;;;;;5072267;28;20042;-57
2023/10/09 16:15:24;;;;;;;21.80;8.07;;;;;;;;;;5071833;28;20450;-58
2023/10/09 16:17:58;;;;;;;11.45;6.10;;;;;;;;;;5073390;28;20015;-57
2023/10/09 16:20:25;;;;;;;15.90;6.90;;;;;;;;;;5071280;28;20032;-58
2023/10/09 16:22:51;;;;;;;15.85;7.28;;;;;;;;;;5073097;28;20050;-57
2023/10/09 16:25:20;;;;;;;11.55;6.53;;;;;;;;;;5071999;28;20451;-58
2023/10/09 16:27:48;;;;;;;17.85;7.20;;;;;;;;;;5072879;28;20020;-58
2023/10/09 16:30:18;;;;;;;13.93;6.85;;;;;;;;;;5071735;28;20033;-57
2023/10/09 16:32:43;;;;;;;11.90;5.97;;;;;;;;;;5073167;28;20020;-58
2023/10/09 16:35:09;;;;;;;20.07;7.83;;;;;;;;;;5071168;28;20110;-57
2023/10/09 16:37:34;;;;;;;15.68;8.23;;;;;;;;;;5072929;28;20017;-58
2023/10/09 16:40:05;;;;;;;16.35;4.95;;;;;;;;;;5071379;28;20031;-57
2023/10/09 16:42:35;;;;;;;10.68;6.72;;;;;;;;;;5072085;28;20017;-57
2023/10/09 16:45:01;;;;;;;16.65;9.50;;;;;;;;;;5067586;28;20032;-57
2023/10/09 16:47:28;;;;;;;10.43;6.35;;;;;;;;;;5071328;28;20162;-57